DAL1123 KATL-KPBI
Flight info
| Callsign | DAL1123 |
|---|---|
| Flight time | N/A |
| Altitude | 27000 |
| Route | SMLTZ3 WALET ZPLEN VUUDU1 |
| Aircraft | A321/M-SDE3FGHIRWY/LB1 |
Departure
| Time | N/A |
|---|---|
| Airport | Hartsfield Jackson Atlanta International Airport (KATL) |
Arrival
| Time | 2026-04-28 22:40 |
|---|---|
| Airport | Palm Beach International Airport (KPBI) |
| Time | Latitude | Longitude | Altitude | Speed | Heading |
|---|---|---|---|---|---|
| 2026-04-28 22:13 | 27.46730 | -82.11752 | 24097 ft | 500 kts | 163° |
| 2026-04-28 22:14 | 27.43519 | -82.10712 | 24098 ft | 479 kts | 163° |
| 2026-04-28 22:14 | 27.40389 | -82.09692 | 24092 ft | 458 kts | 163° |
| 2026-04-28 22:14 | 27.37396 | -82.08708 | 24097 ft | 438 kts | 163° |
| 2026-04-28 22:14 | 27.34526 | -82.07758 | 24100 ft | 424 kts | 163° |
| 2026-04-28 22:15 | 27.31674 | -82.06808 | 24094 ft | 421 kts | 163° |
| 2026-04-28 22:15 | 27.28874 | -82.05869 | 24090 ft | 420 kts | 163° |
| 2026-04-28 22:15 | 27.26071 | -82.04926 | 24097 ft | 420 kts | 163° |
| 2026-04-28 22:15 | 27.23271 | -82.03987 | 24097 ft | 420 kts | 163° |
| 2026-04-28 22:16 | 27.20467 | -82.03050 | 24091 ft | 420 kts | 163° |
| 2026-04-28 22:16 | 27.17664 | -82.02114 | 24099 ft | 421 kts | 163° |
| 2026-04-28 22:16 | 27.14861 | -82.01177 | 24091 ft | 421 kts | 163° |
| 2026-04-28 22:16 | 27.12052 | -82.00238 | 24091 ft | 421 kts | 163° |
| 2026-04-28 22:17 | 27.09245 | -81.99302 | 24091 ft | 421 kts | 163° |
| 2026-04-28 22:17 | 27.06479 | -81.98220 | 24096 ft | 421 kts | 155° |
| 2026-04-28 22:17 | 27.03925 | -81.96636 | 24089 ft | 420 kts | 144° |
| 2026-04-28 22:17 | 27.01661 | -81.94583 | 23896 ft | 417 kts | 134° |
| 2026-04-28 22:18 | 26.99751 | -81.92162 | 23670 ft | 414 kts | 127° |
| 2026-04-28 22:18 | 26.97924 | -81.89665 | 23428 ft | 413 kts | 128° |
| 2026-04-28 22:18 | 26.96101 | -81.87189 | 23162 ft | 411 kts | 128° |
| 2026-04-28 22:18 | 26.94282 | -81.84726 | 22895 ft | 409 kts | 128° |
| 2026-04-28 22:19 | 26.92469 | -81.82277 | 22635 ft | 408 kts | 128° |
| 2026-04-28 22:19 | 26.90659 | -81.79832 | 22379 ft | 406 kts | 128° |
| 2026-04-28 22:19 | 26.88859 | -81.77401 | 22120 ft | 405 kts | 128° |
| 2026-04-28 22:19 | 26.87041 | -81.74945 | 21862 ft | 403 kts | 128° |
| 2026-04-28 22:20 | 26.85251 | -81.72539 | 21612 ft | 402 kts | 128° |
| 2026-04-28 22:20 | 26.83446 | -81.70153 | 21358 ft | 400 kts | 129° |
| 2026-04-28 22:20 | 26.81638 | -81.67790 | 21110 ft | 399 kts | 129° |
| 2026-04-28 22:20 | 26.79830 | -81.65433 | 20883 ft | 397 kts | 129° |
| 2026-04-28 22:21 | 26.78032 | -81.63089 | 20713 ft | 397 kts | 129° |
| 2026-04-28 22:21 | 26.76238 | -81.60747 | 20434 ft | 395 kts | 129° |
| 2026-04-28 22:21 | 26.74455 | -81.58416 | 20157 ft | 393 kts | 129° |
| 2026-04-28 22:21 | 26.72680 | -81.56096 | 19879 ft | 392 kts | 129° |
| 2026-04-28 22:22 | 26.70929 | -81.53773 | 19602 ft | 389 kts | 125° |
| 2026-04-28 22:22 | 26.69549 | -81.51203 | 19326 ft | 384 kts | 111° |
| 2026-04-28 22:22 | 26.68742 | -81.48385 | 19049 ft | 379 kts | 98° |
| 2026-04-28 22:22 | 26.68511 | -81.45468 | 18587 ft | 375 kts | 85° |
| 2026-04-28 22:23 | 26.68879 | -81.42606 | 18101 ft | 370 kts | 73° |
| 2026-04-28 22:23 | 26.69554 | -81.39846 | 17645 ft | 366 kts | 73° |
| 2026-04-28 22:23 | 26.70207 | -81.37111 | 17210 ft | 362 kts | 73° |
| 2026-04-28 22:23 | 26.70841 | -81.34397 | 16780 ft | 359 kts | 73° |
| 2026-04-28 22:24 | 26.71455 | -81.31739 | 16354 ft | 357 kts | 73° |
| 2026-04-28 22:24 | 26.72074 | -81.29062 | 15924 ft | 354 kts | 73° |
| 2026-04-28 22:24 | 26.72688 | -81.26413 | 15508 ft | 351 kts | 73° |
| 2026-04-28 22:24 | 26.73301 | -81.23781 | 15081 ft | 348 kts | 73° |
| 2026-04-28 22:25 | 26.73912 | -81.21173 | 14852 ft | 345 kts | 73° |
| 2026-04-28 22:25 | 26.74518 | -81.18573 | 14564 ft | 344 kts | 73° |
| 2026-04-28 22:25 | 26.75118 | -81.15992 | 14305 ft | 342 kts | 73° |
| 2026-04-28 22:25 | 26.75715 | -81.13423 | 14079 ft | 341 kts | 73° |
| 2026-04-28 22:26 | 26.76309 | -81.10863 | 13854 ft | 339 kts | 73° |
| 2026-04-28 22:26 | 26.76902 | -81.08312 | 13617 ft | 338 kts | 73° |
| 2026-04-28 22:26 | 26.77492 | -81.05777 | 13403 ft | 336 kts | 73° |
| 2026-04-28 22:26 | 26.78078 | -81.03251 | 13188 ft | 335 kts | 73° |
| 2026-04-28 22:27 | 26.78613 | -81.00727 | 12970 ft | 334 kts | 79° |
| 2026-04-28 22:27 | 26.78811 | -80.98128 | 12427 ft | 337 kts | 85° |
| 2026-04-28 22:27 | 26.78930 | -80.95529 | 11948 ft | 330 kts | 85° |
| 2026-04-28 22:27 | 26.79035 | -80.92976 | 11289 ft | 326 kts | 85° |
| 2026-04-28 22:28 | 26.79135 | -80.90459 | 10751 ft | 323 kts | 85° |
| 2026-04-28 22:28 | 26.79237 | -80.87930 | 10404 ft | 316 kts | 85° |
| 2026-04-28 22:28 | 26.79330 | -80.85572 | 10189 ft | 291 kts | 85° |
| 2026-04-28 22:28 | 26.79419 | -80.83359 | 9613 ft | 280 kts | 85° |
| 2026-04-28 22:29 | 26.79510 | -80.81216 | 9432 ft | 277 kts | 85° |
| 2026-04-28 22:29 | 26.79603 | -80.79057 | 9307 ft | 278 kts | 85° |
| 2026-04-28 22:29 | 26.79641 | -80.76894 | 9190 ft | 282 kts | 92° |
| 2026-04-28 22:29 | 26.79239 | -80.74752 | 9064 ft | 283 kts | 107° |
| 2026-04-28 22:30 | 26.78546 | -80.72688 | 8850 ft | 283 kts | 108° |
| 2026-04-28 22:30 | 26.77857 | -80.70634 | 8546 ft | 281 kts | 108° |
| 2026-04-28 22:30 | 26.77177 | -80.68600 | 8298 ft | 275 kts | 108° |
| 2026-04-28 22:30 | 26.76517 | -80.66617 | 7979 ft | 272 kts | 107° |
| 2026-04-28 22:31 | 26.75860 | -80.64638 | 7633 ft | 270 kts | 107° |
| 2026-04-28 22:31 | 26.75210 | -80.62679 | 7322 ft | 267 kts | 108° |
| 2026-04-28 22:31 | 26.74562 | -80.60729 | 7029 ft | 268 kts | 109° |
| 2026-04-28 22:31 | 26.73914 | -80.58779 | 6728 ft | 267 kts | 109° |
| 2026-04-28 22:32 | 26.73255 | -80.56835 | 6423 ft | 268 kts | 110° |
| 2026-04-28 22:32 | 26.72577 | -80.54893 | 6115 ft | 267 kts | 110° |
| 2026-04-28 22:32 | 26.71899 | -80.52964 | 5804 ft | 266 kts | 110° |
| 2026-04-28 22:32 | 26.71227 | -80.51057 | 5606 ft | 259 kts | 110° |
| 2026-04-28 22:33 | 26.70571 | -80.49197 | 5264 ft | 258 kts | 110° |
| 2026-04-28 22:33 | 26.70077 | -80.47291 | 5013 ft | 251 kts | 97° |
| 2026-04-28 22:33 | 26.69833 | -80.45364 | 4869 ft | 246 kts | 95° |
| 2026-04-28 22:33 | 26.69728 | -80.44175 | 4794 ft | 238 kts | 93° |
| 2026-04-28 22:34 | 26.69633 | -80.42357 | 4649 ft | 230 kts | 90° |
| 2026-04-28 22:34 | 26.69573 | -80.40582 | 4500 ft | 227 kts | 90° |
| 2026-04-28 22:34 | 26.69505 | -80.38836 | 4219 ft | 224 kts | 90° |
| 2026-04-28 22:34 | 26.69457 | -80.37663 | 4041 ft | 223 kts | 90° |
| 2026-04-28 22:35 | 26.69386 | -80.35952 | 3758 ft | 219 kts | 90° |
| 2026-04-28 22:35 | 26.69315 | -80.34259 | 3561 ft | 215 kts | 90° |
| 2026-04-28 22:35 | 26.69246 | -80.32601 | 3311 ft | 212 kts | 90° |
| 2026-04-28 22:35 | 26.69178 | -80.30961 | 3068 ft | 210 kts | 90° |
| 2026-04-28 22:36 | 26.69109 | -80.29328 | 3001 ft | 210 kts | 91° |
| 2026-04-28 22:36 | 26.69041 | -80.27689 | 2914 ft | 212 kts | 91° |
| 2026-04-28 22:36 | 26.68971 | -80.26052 | 2701 ft | 210 kts | 90° |
| 2026-04-28 22:36 | 26.68903 | -80.24425 | 2440 ft | 208 kts | 91° |
| 2026-04-28 22:37 | 26.68834 | -80.22824 | 2177 ft | 203 kts | 90° |
| 2026-04-28 22:37 | 26.68768 | -80.21298 | 1920 ft | 188 kts | 90° |
| 2026-04-28 22:37 | 26.68709 | -80.19910 | 1695 ft | 168 kts | 91° |
| 2026-04-28 22:37 | 26.68657 | -80.18701 | 1472 ft | 146 kts | 91° |
| 2026-04-28 22:38 | 26.68609 | -80.17601 | 1270 ft | 138 kts | 90° |
| 2026-04-28 22:38 | 26.68564 | -80.16538 | 1109 ft | 135 kts | 89° |
| 2026-04-28 22:38 | 26.68520 | -80.15497 | 899 ft | 133 kts | 91° |
| 2026-04-28 22:38 | 26.68476 | -80.14446 | 735 ft | 138 kts | 88° |
| 2026-04-28 22:39 | 26.68430 | -80.13396 | 571 ft | 134 kts | 87° |
| 2026-04-28 22:39 | 26.68383 | -80.12354 | 373 ft | 135 kts | 85° |
| 2026-04-28 22:39 | 26.68338 | -80.11309 | 207 ft | 134 kts | 86° |
| 2026-04-28 22:39 | 26.68292 | -80.10266 | 43 ft | 134 kts | 87° |
| 2026-04-28 22:40 | 26.68263 | -80.09314 | 22 ft | 106 kts | 94° |
| 2026-04-28 22:40 | 26.68228 | -80.08800 | 22 ft | 31 kts | 95° |
| 2026-04-28 22:40 | 26.68300 | -80.08636 | 22 ft | 17 kts | 2° |
| 2026-04-28 22:40 | 26.68378 | -80.08713 | 22 ft | 15 kts | 343° |
| 2026-04-28 22:41 | 26.68456 | -80.08769 | 22 ft | 13 kts | 339° |
| 2026-04-28 22:41 | 26.68536 | -80.08769 | 22 ft | 12 kts | 4° |
| 2026-04-28 22:41 | 26.68616 | -80.08792 | 22 ft | 12 kts | 326° |
| 2026-04-28 22:41 | 26.68679 | -80.08838 | 22 ft | 10 kts | 308° |
| 2026-04-28 22:42 | 26.68687 | -80.08892 | 22 ft | 5 kts | 271° |
| 2026-04-28 22:42 | 26.68687 | -80.08905 | 22 ft | 1 kts | 272° |
| 2026-04-28 22:42 | 26.68687 | -80.08906 | 22 ft | 0 kts | 272° |